createdAt,value
2017-02-04T00:00:46.847Z,21.42
2017-02-04T00:01:46.785Z,21.33
2017-02-04T00:02:46.722Z,21.41
2017-02-04T00:03:46.660Z,21.52
2017-02-04T00:04:46.600Z,21.42
2017-02-04T00:05:46.536Z,21.42
2017-02-04T00:06:46.472Z,21.52
2017-02-04T00:07:46.407Z,21.23
2017-02-04T00:08:46.343Z,21.52
2017-02-04T00:09:46.282Z,21.42
2017-02-04T00:10:46.229Z,21.42
2017-02-04T00:11:46.156Z,21.42
2017-02-04T00:12:46.102Z,21.42
2017-02-04T00:13:46.030Z,21.42
2017-02-04T00:14:45.573Z,21.41
2017-02-04T00:15:45.904Z,21.42
2017-02-04T00:16:45.840Z,21.33
2017-02-04T00:17:45.781Z,21.23
2017-02-04T00:18:45.714Z,21.52
2017-02-04T00:19:45.679Z,21.13
2017-02-04T00:20:45.197Z,21.33
2017-02-04T00:21:45.529Z,21.62
2017-02-04T00:22:45.463Z,21.04
2017-02-04T00:23:45.404Z,21.04
2017-02-04T00:24:44.947Z,21.04
2017-02-04T00:25:45.272Z,21.33
2017-02-04T00:26:45.213Z,20.94
2017-02-04T00:27:45.148Z,21.33
2017-02-04T00:28:45.085Z,21.04
2017-02-04T00:29:45.310Z,20.94
2017-02-04T00:30:44.957Z,21.04
2017-02-04T00:31:44.902Z,20.94
2017-02-04T00:32:44.835Z,20.94
2017-02-04T00:33:44.770Z,21.23
2017-02-04T00:34:44.708Z,21.33
2017-02-04T00:35:44.647Z,21.04
2017-02-04T00:36:44.583Z,21.23
2017-02-04T00:37:44.520Z,21.23
2017-02-04T00:38:44.458Z,21.13
2017-02-04T00:39:44.396Z,21.23
2017-02-04T00:40:44.330Z,21.23
2017-02-04T00:41:44.267Z,21.33
2017-02-04T00:42:44.204Z,21.23
2017-02-04T00:43:44.143Z,21.23
2017-02-04T00:44:44.085Z,21.13
2017-02-04T00:45:44.016Z,21.13
2017-02-04T00:46:43.953Z,21.13
2017-02-04T00:47:43.891Z,21.13
2017-02-04T00:48:43.830Z,21.04
2017-02-04T00:49:43.765Z,21.04
2017-02-04T00:50:43.702Z,21.04
2017-02-04T00:51:43.639Z,20.94
2017-02-04T00:52:43.576Z,20.94
2017-02-04T00:53:43.515Z,21.04
2017-02-04T00:54:43.449Z,20.94
2017-02-04T00:55:43.388Z,20.94
2017-02-04T00:56:43.324Z,20.94
2017-02-04T00:57:43.264Z,20.94
2017-02-04T00:58:43.199Z,20.94
2017-02-04T00:59:43.136Z,20.84
2017-02-04T01:01:13.191Z,20.94
2017-02-04T01:02:13.128Z,20.94
2017-02-04T01:03:13.063Z,20.84
2017-02-04T01:04:13.003Z,20.84
2017-02-04T01:05:12.938Z,20.94
2017-02-04T01:06:13.427Z,21.13
2017-02-04T01:07:12.812Z,20.94
2017-02-04T01:08:12.748Z,21.13
2017-02-04T01:09:12.687Z,21.23
2017-02-04T01:10:12.623Z,21.13
2017-02-04T01:11:12.559Z,20.94
2017-02-04T01:12:12.495Z,20.94
2017-02-04T01:13:12.436Z,20.84
2017-02-04T01:14:12.370Z,21.13
2017-02-04T01:15:12.310Z,21.13
2017-02-04T01:16:12.243Z,21.04
2017-02-04T01:17:12.182Z,21.04
2017-02-04T01:18:12.120Z,21.04
2017-02-04T01:19:12.055Z,21.04
2017-02-04T01:20:11.991Z,21.04
2017-02-04T01:21:11.931Z,20.84
2017-02-04T01:22:11.865Z,20.94
2017-02-04T01:23:11.804Z,21.04
2017-02-04T01:24:11.741Z,20.94
2017-02-04T01:25:11.677Z,20.94
2017-02-04T01:26:11.620Z,21.04
2017-02-04T01:27:11.552Z,21.13
2017-02-04T01:28:11.490Z,21.13
2017-02-04T01:29:11.428Z,21.04
2017-02-04T01:30:11.360Z,21.13
2017-02-04T01:31:11.299Z,21.13
2017-02-04T01:32:11.534Z,20.94
2017-02-04T01:33:11.172Z,21.13
2017-02-04T01:34:11.112Z,21.04
2017-02-04T01:35:11.048Z,20.94
2017-02-04T01:36:10.998Z,21.04
2017-02-04T01:37:10.923Z,21.13
2017-02-04T01:38:10.470Z,21.04
2017-02-04T01:39:10.407Z,20.94
2017-02-04T01:40:10.737Z,21.04
2017-02-04T01:41:10.671Z,20.94
2017-02-04T01:42:10.609Z,21.04
2017-02-04T01:43:10.546Z,20.84
2017-02-04T01:44:10.487Z,20.84
2017-02-04T01:45:10.331Z,20.94
2017-02-04T01:46:10.358Z,21.04
2017-02-04T01:47:09.902Z,21.04
2017-02-04T01:48:10.228Z,21.13
2017-02-04T01:49:10.166Z,21.04
2017-02-04T01:50:10.257Z,20.94
2017-02-04T01:51:10.042Z,20.94
2017-02-04T01:52:09.982Z,20.94
2017-02-04T01:53:09.526Z,21.04
2017-02-04T01:54:09.855Z,21.04
2017-02-04T01:55:09.795Z,21.04
2017-02-04T01:56:09.727Z,21.04
2017-02-04T01:57:09.669Z,20.84
2017-02-04T01:58:09.602Z,20.94
2017-02-04T01:59:09.538Z,20.84
2017-02-04T02:00:09.478Z,20.94
2017-02-04T02:01:09.416Z,21.04
2017-02-04T02:02:09.352Z,20.94
2017-02-04T02:03:09.290Z,20.84
2017-02-04T02:04:09.227Z,20.93
2017-02-04T02:05:09.162Z,20.84
2017-02-04T02:06:09.101Z,20.84
2017-02-04T02:07:09.037Z,21.04
2017-02-04T02:08:08.582Z,21.04
2017-02-04T02:09:08.914Z,20.94
2017-02-04T02:10:08.847Z,20.94
2017-02-04T02:11:08.783Z,21.04
2017-02-04T02:12:08.331Z,21.04
2017-02-04T02:13:08.660Z,20.94
2017-02-04T02:14:08.600Z,20.84
2017-02-04T02:15:08.536Z,21.04
2017-02-04T02:16:08.470Z,21.04
2017-02-04T02:17:08.410Z,20.65
2017-02-04T02:18:08.343Z,20.94
2017-02-04T02:19:08.283Z,20.94
2017-02-04T02:20:08.469Z,20.94
2017-02-04T02:21:08.155Z,21.04
2017-02-04T02:22:08.097Z,20.75
2017-02-04T02:23:08.031Z,20.94
2017-02-04T02:24:07.577Z,20.94
2017-02-04T02:25:08.203Z,20.84
2017-02-04T02:26:07.841Z,20.84
2017-02-04T02:27:07.778Z,20.65
2017-02-04T02:28:07.715Z,21.04
2017-02-04T02:29:07.651Z,20.75
2017-02-04T02:30:07.595Z,21.04
2017-02-04T02:31:07.530Z,20.94
2017-02-04T02:32:07.669Z,21.04
2017-02-04T02:33:07.402Z,20.94
2017-02-04T02:34:07.338Z,20.94
2017-02-04T02:35:07.278Z,20.94
2017-02-04T02:36:07.216Z,21.04
2017-02-04T02:37:07.152Z,20.75
2017-02-04T02:38:07.089Z,20.75
2017-02-04T02:39:07.025Z,20.75
2017-02-04T02:40:06.961Z,20.94
2017-02-04T02:41:06.904Z,20.94
2017-02-04T02:42:06.837Z,20.75
2017-02-04T02:43:06.773Z,20.75
2017-02-04T02:44:06.710Z,21.04
2017-02-04T02:45:06.648Z,20.75
2017-02-04T02:46:06.588Z,21.04
2017-02-04T02:47:06.523Z,20.75
2017-02-04T02:48:06.460Z,20.94
2017-02-04T02:49:06.394Z,20.75
2017-02-04T02:50:06.336Z,20.75
2017-02-04T02:51:06.271Z,20.84
2017-02-04T02:52:05.819Z,20.94
2017-02-04T02:53:06.147Z,20.94
2017-02-04T02:54:06.083Z,20.65
2017-02-04T02:55:06.020Z,20.75
2017-02-04T02:56:05.956Z,21.04
2017-02-04T02:57:05.501Z,21.04
2017-02-04T02:58:05.830Z,21.04
2017-02-04T02:59:05.771Z,20.65
2017-02-04T03:00:05.704Z,20.94
2017-02-04T03:01:05.640Z,20.75
2017-02-04T03:02:05.578Z,20.94
2017-02-04T03:03:05.517Z,21.04
2017-02-04T03:04:05.452Z,20.94
2017-02-04T03:05:05.391Z,21.04
2017-02-04T03:06:05.327Z,21.04
2017-02-04T03:07:05.266Z,20.75
2017-02-04T03:08:05.200Z,20.84
2017-02-04T03:09:05.141Z,20.84
2017-02-04T03:10:05.075Z,21.04
2017-02-04T03:11:05.015Z,20.94
2017-02-04T03:12:04.949Z,21.04
2017-02-04T03:13:04.889Z,20.75
2017-02-04T03:14:04.824Z,21.04
2017-02-04T03:15:04.761Z,20.75
2017-02-04T03:16:04.698Z,20.94
2017-02-04T03:17:04.633Z,20.94
2017-02-04T03:18:04.572Z,20.94
2017-02-04T03:19:04.508Z,20.94
2017-02-04T03:20:04.451Z,21.04
2017-02-04T03:21:04.389Z,20.94
2017-02-04T03:22:04.322Z,20.94
2017-02-04T03:23:04.259Z,21.04
2017-02-04T03:24:04.196Z,20.94
2017-02-04T03:25:04.161Z,20.75
2017-02-04T03:26:04.068Z,20.94
2017-02-04T03:27:04.005Z,20.75
2017-02-04T03:28:03.944Z,21.04
2017-02-04T03:29:03.882Z,20.84
2017-02-04T03:30:03.822Z,20.94
2017-02-04T03:31:03.758Z,20.84
2017-02-04T03:32:03.690Z,20.84
2017-02-04T03:33:03.629Z,20.94
2017-02-04T03:34:03.566Z,20.84
2017-02-04T03:35:03.508Z,21.04
2017-02-04T03:36:03.443Z,21.04
2017-02-04T03:37:03.378Z,20.84
2017-02-04T03:38:03.316Z,20.94
2017-02-04T03:39:03.255Z,20.75
2017-02-04T03:40:03.190Z,20.84
2017-02-04T03:41:03.126Z,20.75
2017-02-04T03:42:03.062Z,20.75
2017-02-04T03:43:03.003Z,20.65
2017-02-04T03:44:02.939Z,21.04
2017-02-04T03:45:02.875Z,20.84
2017-02-04T03:46:02.809Z,20.75
2017-02-04T03:47:02.748Z,20.75
2017-02-04T03:48:02.690Z,21.13
2017-02-04T03:49:02.621Z,20.84
2017-02-04T03:50:02.561Z,20.84
2017-02-04T03:51:02.498Z,21.04
2017-02-04T03:52:02.433Z,21.04
2017-02-04T03:53:02.372Z,20.84
2017-02-04T03:54:02.310Z,20.94
2017-02-04T03:55:02.249Z,20.84
2017-02-04T03:56:02.188Z,20.65
2017-02-04T03:57:02.122Z,20.84
2017-02-04T03:58:02.060Z,20.84
2017-02-04T03:59:01.994Z,20.84
2017-02-04T04:00:01.930Z,20.94
2017-02-04T04:01:01.873Z,20.65
2017-02-04T04:02:01.806Z,20.65
2017-02-04T04:03:01.741Z,20.84
2017-02-04T04:04:01.682Z,20.94
2017-02-04T04:05:01.619Z,21.04
2017-02-04T04:06:01.557Z,20.94
2017-02-04T04:07:01.491Z,20.75
2017-02-04T04:08:01.431Z,21.04
2017-02-04T04:09:01.363Z,20.94
2017-02-04T04:10:01.303Z,20.84
2017-02-04T04:11:01.243Z,20.94
2017-02-04T04:12:01.178Z,20.94
2017-02-04T04:13:01.116Z,20.56
2017-02-04T04:14:01.055Z,20.94
2017-02-04T04:15:00.992Z,20.94
2017-02-04T04:16:00.927Z,20.84
2017-02-04T04:17:00.865Z,21.04
2017-02-04T04:18:00.800Z,20.94
2017-02-04T04:19:00.738Z,21.04
2017-02-04T04:20:00.674Z,20.94
2017-02-04T04:21:00.613Z,21.04
2017-02-04T04:22:00.546Z,21.04
2017-02-04T04:23:00.485Z,20.94
2017-02-04T04:24:00.425Z,20.84
2017-02-04T04:25:00.361Z,21.04
2017-02-04T04:26:00.301Z,20.75
2017-02-04T04:27:00.235Z,20.84
2017-02-04T04:28:00.173Z,20.84
2017-02-04T04:29:00.112Z,20.84
2017-02-04T04:30:00.046Z,20.94
2017-02-04T04:30:59.591Z,20.84
2017-02-04T04:31:59.924Z,20.94
2017-02-04T04:32:59.858Z,20.94
2017-02-04T04:33:59.792Z,21.04
2017-02-04T04:34:59.731Z,20.94
2017-02-04T04:35:59.668Z,20.94
2017-02-04T04:36:59.606Z,20.94
2017-02-04T04:37:59.542Z,20.94
2017-02-04T04:38:59.513Z,21.13
2017-02-04T04:39:59.423Z,20.84
2017-02-04T04:40:59.354Z,20.84
2017-02-04T04:41:59.290Z,20.84
2017-02-04T04:42:59.228Z,20.84
2017-02-04T04:43:59.166Z,20.94
2017-02-04T04:44:59.104Z,21.04
2017-02-04T04:45:59.041Z,20.84
2017-02-04T04:46:58.977Z,20.94
2017-02-04T04:47:58.913Z,20.84
2017-02-04T04:48:58.852Z,21.13
2017-02-04T04:49:58.791Z,20.84
2017-02-04T04:50:58.726Z,20.84
2017-02-04T04:51:58.665Z,20.84
2017-02-04T04:52:58.601Z,21.13
2017-02-04T04:53:58.537Z,20.84
2017-02-04T04:54:58.475Z,20.84
2017-02-04T04:55:58.411Z,20.84
2017-02-04T04:56:58.351Z,20.84
2017-02-04T04:57:58.284Z,20.84
2017-02-04T04:58:58.222Z,20.94
2017-02-04T04:59:58.161Z,21.13
2017-02-04T05:00:58.097Z,21.13
2017-02-04T05:01:58.034Z,20.84
2017-02-04T05:02:57.970Z,21.42
2017-02-04T05:03:57.911Z,21.13
2017-02-04T05:04:57.842Z,20.94
2017-02-04T05:05:57.782Z,21.04
2017-02-04T05:06:57.718Z,20.75
2017-02-04T05:07:57.657Z,20.54
2017-02-04T05:08:57.594Z,20.75
2017-02-04T05:09:57.532Z,21.04
2017-02-04T05:10:57.469Z,20.83
2017-02-04T05:11:57.405Z,20.94
2017-02-04T05:12:57.343Z,21.13
2017-02-04T05:13:57.279Z,21.13
2017-02-04T05:14:57.216Z,20.93
2017-02-04T05:15:57.153Z,20.93
2017-02-04T05:16:57.091Z,20.83
2017-02-04T05:17:57.028Z,20.83
2017-02-04T05:18:56.969Z,21.12
2017-02-04T05:19:56.900Z,21.22
2017-02-04T05:20:56.838Z,20.54
2017-02-04T05:21:56.777Z,20.83
2017-02-04T05:22:56.713Z,20.64
2017-02-04T05:23:56.649Z,20.83
2017-02-04T05:24:56.588Z,20.93
2017-02-04T05:25:56.528Z,20.93
2017-02-04T05:26:56.460Z,20.83
2017-02-04T05:27:56.428Z,20.83
2017-02-04T05:28:56.338Z,20.83
2017-02-04T05:29:56.273Z,20.93
2017-02-04T05:30:56.209Z,20.93
2017-02-04T05:31:56.145Z,21.03
2017-02-04T05:32:56.083Z,20.93
2017-02-04T05:33:56.020Z,21.03
2017-02-04T05:34:55.955Z,20.64
2017-02-04T05:35:55.894Z,20.83
2017-02-04T05:36:55.832Z,20.93
2017-02-04T05:37:55.768Z,20.83
2017-02-04T05:38:55.703Z,20.64
2017-02-04T05:39:55.642Z,21.03
2017-02-04T05:40:55.577Z,20.83
2017-02-04T05:41:55.516Z,20.93
2017-02-04T05:42:55.454Z,20.74
2017-02-04T05:43:55.391Z,20.74
2017-02-04T05:44:55.327Z,20.93
2017-02-04T05:45:55.271Z,20.74
2017-02-04T05:46:55.202Z,20.83
2017-02-04T05:47:55.140Z,20.83
2017-02-04T05:48:55.075Z,20.93
2017-02-04T05:49:54.620Z,20.74
2017-02-04T05:50:54.945Z,21.03
2017-02-04T05:51:54.888Z,21.03
2017-02-04T05:52:54.822Z,20.74
2017-02-04T05:53:54.758Z,20.64
2017-02-04T05:54:54.696Z,20.83
2017-02-04T05:55:54.673Z,20.93
2017-02-04T05:56:54.568Z,20.93
2017-02-04T05:57:54.510Z,20.93
2017-02-04T05:58:54.446Z,20.74
2017-02-04T05:59:54.381Z,20.74
2017-02-04T06:00:53.927Z,20.74
2017-02-04T06:01:53.866Z,20.93
2017-02-04T06:02:54.192Z,20.74
2017-02-04T06:03:54.129Z,21.03
2017-02-04T06:04:54.064Z,20.74
2017-02-04T06:05:54.001Z,20.83
2017-02-04T06:06:53.939Z,20.64
2017-02-04T06:07:53.878Z,20.83
2017-02-04T06:08:53.814Z,20.64
2017-02-04T06:09:53.747Z,21.03
2017-02-04T06:10:53.687Z,20.93
2017-02-04T06:11:53.626Z,20.74
2017-02-04T06:12:53.566Z,20.83
2017-02-04T06:13:53.497Z,20.74
2017-02-04T06:14:53.634Z,20.93
2017-02-04T06:15:53.372Z,20.83
2017-02-04T06:16:53.309Z,20.74
2017-02-04T06:17:53.244Z,20.93
2017-02-04T06:18:53.182Z,21.03
2017-02-04T06:19:53.120Z,20.93
2017-02-04T06:20:53.054Z,20.83
2017-02-04T06:21:52.993Z,21.03
2017-02-04T06:22:52.929Z,20.74
2017-02-04T06:23:52.865Z,21.03
2017-02-04T06:24:52.803Z,20.93
2017-02-04T06:25:52.738Z,20.74
2017-02-04T06:26:52.677Z,21.03
2017-02-04T06:27:52.618Z,20.83
2017-02-04T06:28:52.551Z,21.03
2017-02-04T06:29:52.489Z,20.83
2017-02-04T06:30:52.421Z,20.74
2017-02-04T06:31:52.362Z,20.93
2017-02-04T06:32:52.296Z,21.03
2017-02-04T06:33:51.843Z,20.93
2017-02-04T06:34:52.172Z,20.93
2017-02-04T06:35:52.110Z,20.93
2017-02-04T06:36:51.655Z,20.83
2017-02-04T06:37:51.985Z,20.64
2017-02-04T06:38:51.920Z,20.74
2017-02-04T06:39:51.857Z,21.03
2017-02-04T06:40:51.791Z,20.93
2017-02-04T06:41:51.729Z,20.83
2017-02-04T06:42:51.672Z,20.93
2017-02-04T06:43:51.613Z,20.93
2017-02-04T06:44:51.540Z,20.83
2017-02-04T06:45:51.477Z,20.74
2017-02-04T06:46:51.414Z,20.83
2017-02-04T06:47:51.350Z,20.83
2017-02-04T06:48:51.287Z,20.74
2017-02-04T06:49:51.225Z,20.83
2017-02-04T06:50:51.160Z,20.83
2017-02-04T06:51:51.098Z,20.93
2017-02-04T06:52:51.035Z,20.74
2017-02-04T06:53:50.970Z,21.03
2017-02-04T06:54:50.909Z,21.03
2017-02-04T06:55:50.846Z,20.74
2017-02-04T06:56:50.782Z,20.74
2017-02-04T06:57:50.718Z,20.83
2017-02-04T06:58:50.658Z,21.03
2017-02-04T06:59:50.593Z,20.83
2017-02-04T07:00:51.078Z,21.03
2017-02-04T07:01:50.471Z,21.03
2017-02-04T07:02:50.403Z,20.93
2017-02-04T07:03:50.340Z,20.83
2017-02-04T07:04:50.277Z,20.74
2017-02-04T07:05:50.215Z,20.83
2017-02-04T07:06:49.770Z,20.83
2017-02-04T07:07:50.088Z,20.93
2017-02-04T07:08:50.024Z,20.93
2017-02-04T07:09:49.585Z,20.83
2017-02-04T07:10:50.156Z,20.83
2017-02-04T07:11:49.844Z,20.83
2017-02-04T07:12:49.780Z,21.03
2017-02-04T07:13:49.707Z,20.93
2017-02-04T07:14:49.658Z,20.93
2017-02-04T07:15:49.582Z,21.03
2017-02-04T07:16:49.528Z,20.93
2017-02-04T07:17:49.476Z,20.83
2017-02-04T07:18:49.411Z,20.93
2017-02-04T07:19:49.338Z,20.93
2017-02-04T07:20:49.266Z,20.83
2017-02-04T07:21:49.202Z,20.83
2017-02-04T07:22:49.138Z,20.83
2017-02-04T07:23:49.076Z,21.03
2017-02-04T07:24:49.011Z,20.93
2017-02-04T07:26:48.887Z,20.83
2017-02-04T07:27:48.827Z,20.64
2017-02-04T07:28:48.762Z,20.83
2017-02-04T07:29:48.698Z,20.93
2017-02-04T07:30:48.637Z,20.93
2017-02-04T07:31:48.567Z,21.03
2017-02-04T07:32:48.508Z,21.03
2017-02-04T07:33:48.444Z,20.93
2017-02-04T07:34:48.381Z,21.03
2017-02-04T07:35:48.318Z,21.12
2017-02-04T07:36:48.256Z,20.74
2017-02-04T07:37:48.197Z,21.03
2017-02-04T07:38:48.131Z,20.93
2017-02-04T07:39:48.068Z,20.93
2017-02-04T07:40:48.001Z,20.83
2017-02-04T07:41:47.936Z,20.74
2017-02-04T07:42:47.883Z,20.64
2017-02-04T07:43:47.811Z,20.93
2017-02-04T07:44:47.750Z,20.74
2017-02-04T07:45:47.937Z,20.64
2017-02-04T07:46:47.626Z,20.83
2017-02-04T07:47:47.565Z,20.83
2017-02-04T07:48:47.495Z,21.12
2017-02-04T07:49:47.433Z,20.93
2017-02-04T07:50:47.670Z,20.93
2017-02-04T07:51:47.304Z,20.83
2017-02-04T07:52:47.242Z,20.93
2017-02-04T07:53:47.179Z,20.93
2017-02-04T07:54:47.117Z,20.74
2017-02-04T07:55:47.054Z,21.03
2017-02-04T07:56:46.986Z,20.93
2017-02-04T07:57:46.926Z,21.03
2017-02-04T07:58:46.861Z,20.83
2017-02-04T07:59:46.801Z,20.64
2017-02-04T08:00:46.975Z,20.83
2017-02-04T08:01:46.674Z,20.83
2017-02-04T08:02:46.610Z,20.74
2017-02-04T08:03:46.546Z,20.93
2017-02-04T08:04:46.484Z,21.03
2017-02-04T08:05:46.420Z,20.93
2017-02-04T08:06:46.356Z,20.93
2017-02-04T08:07:46.295Z,20.93
2017-02-04T08:08:46.233Z,21.03
2017-02-04T08:09:46.169Z,21.03
2017-02-04T08:10:46.105Z,21.03
2017-02-04T08:11:46.039Z,20.74
2017-02-04T08:12:45.981Z,20.74
2017-02-04T08:13:45.924Z,20.74
2017-02-04T08:14:45.849Z,20.74
2017-02-04T08:15:45.787Z,21.03
2017-02-04T08:16:45.725Z,21.03
2017-02-04T08:17:45.661Z,20.93
2017-02-04T08:18:45.596Z,20.93
2017-02-04T08:19:45.534Z,21.03
2017-02-04T08:20:45.471Z,21.03
2017-02-04T08:21:45.406Z,20.93
2017-02-04T08:22:45.343Z,20.93
2017-02-04T08:23:45.285Z,20.93
2017-02-04T08:24:45.239Z,20.93
2017-02-04T08:25:45.155Z,20.83
2017-02-04T08:26:45.091Z,21.03
2017-02-04T08:27:45.029Z,20.93
2017-02-04T08:28:44.967Z,20.93
2017-02-04T08:29:44.906Z,20.93
2017-02-04T08:30:44.838Z,20.93
2017-02-04T08:31:44.774Z,20.83
2017-02-04T08:32:44.717Z,20.93
2017-02-04T08:33:44.648Z,20.93
2017-02-04T08:34:44.585Z,21.03
2017-02-04T08:35:44.525Z,20.83
2017-02-04T08:36:44.459Z,21.03
2017-02-04T08:37:44.394Z,20.83
2017-02-04T08:38:44.339Z,20.93
2017-02-04T08:39:44.268Z,21.03
2017-02-04T08:40:44.207Z,21.03
2017-02-04T08:41:44.144Z,21.12
2017-02-04T08:42:44.117Z,20.93
2017-02-04T08:43:44.017Z,20.93
2017-02-04T08:44:43.958Z,21.03
2017-02-04T08:45:43.889Z,21.03
2017-02-04T08:46:43.827Z,21.03
2017-02-04T08:47:43.761Z,20.83
2017-02-04T08:48:43.699Z,20.93
2017-02-04T08:49:43.637Z,21.03
2017-02-04T08:50:43.572Z,20.83
2017-02-04T08:51:43.509Z,20.93
2017-02-04T08:52:43.446Z,21.03
2017-02-04T08:53:43.385Z,20.93
2017-02-04T08:54:43.321Z,20.83
2017-02-04T08:55:43.259Z,20.83
2017-02-04T08:56:43.197Z,20.83
2017-02-04T08:57:43.130Z,21.03
2017-02-04T08:58:43.075Z,21.12
2017-02-04T08:59:43.006Z,21.03
2017-02-04T09:00:42.943Z,21.03
2017-02-04T09:01:42.880Z,21.03
2017-02-04T09:02:42.817Z,21.12
2017-02-04T09:03:42.786Z,21.03
2017-02-04T09:04:42.690Z,21.03
2017-02-04T09:06:42.561Z,20.93
2017-02-04T09:07:42.499Z,20.83
2017-02-04T09:08:42.439Z,21.12
2017-02-04T09:09:42.371Z,20.93
2017-02-04T09:10:42.309Z,21.12
2017-02-04T09:11:42.245Z,21.12
2017-02-04T09:12:42.183Z,21.12
2017-02-04T09:13:42.118Z,21.03
2017-02-04T09:14:42.056Z,21.03
2017-02-04T09:15:41.993Z,20.83
2017-02-04T09:16:41.931Z,20.83
2017-02-04T09:17:41.867Z,20.83
2017-02-04T09:18:41.802Z,20.93
2017-02-04T09:19:41.740Z,20.93
2017-02-04T09:20:41.676Z,20.93
2017-02-04T09:21:41.612Z,20.83
2017-02-04T09:22:41.552Z,21.03
2017-02-04T09:23:41.521Z,20.93
2017-02-04T09:24:41.422Z,21.12
2017-02-04T09:25:41.362Z,21.03
2017-02-04T09:26:41.298Z,20.93
2017-02-04T09:27:41.229Z,20.93
2017-02-04T09:28:41.168Z,21.12
2017-02-04T09:29:41.108Z,21.12
2017-02-04T09:30:41.050Z,21.03
2017-02-04T09:31:40.979Z,21.12
2017-02-04T09:32:40.920Z,21.03
2017-02-04T09:33:40.854Z,21.03
2017-02-04T09:34:40.787Z,21.22
2017-02-04T09:35:40.726Z,21.03
2017-02-04T09:36:40.662Z,21.03
2017-02-04T09:37:40.599Z,21.03
2017-02-04T09:38:40.539Z,21.41
2017-02-04T09:39:40.475Z,21.31
2017-02-04T09:40:40.411Z,21.41
2017-02-04T09:41:40.345Z,21.22
2017-02-04T09:42:40.284Z,21.31
2017-02-04T09:43:40.221Z,21.5
2017-02-04T09:44:40.155Z,21.31
2017-02-04T09:45:40.093Z,21.31
2017-02-04T09:46:40.030Z,21.41
2017-02-04T09:47:39.970Z,21.41
2017-02-04T09:48:39.905Z,21.41
2017-02-04T09:49:39.838Z,21.31
2017-02-04T09:50:39.883Z,21.22
2017-02-04T09:51:39.716Z,21.51
2017-02-04T09:52:39.651Z,21.22
2017-02-04T09:53:39.585Z,21.41
2017-02-04T09:54:39.525Z,21.22
2017-02-04T09:55:39.860Z,21.22
2017-02-04T09:56:39.398Z,21.31
2017-02-04T09:57:39.334Z,21.31
2017-02-04T09:58:39.271Z,21.22
2017-02-04T09:59:39.210Z,21.4
2017-02-04T10:00:39.149Z,21.41
2017-02-04T10:01:39.082Z,21.31
2017-02-04T10:02:39.019Z,21.31
2017-02-04T10:03:38.955Z,21.41
2017-02-04T10:04:38.892Z,21.31
2017-02-04T10:05:38.825Z,21.31
2017-02-04T10:06:38.767Z,21.41
2017-02-04T10:07:38.704Z,21.31
2017-02-04T10:08:38.639Z,21.31
2017-02-04T10:09:38.577Z,21.12
2017-02-04T10:11:39.650Z,21.22
2017-02-04T10:12:38.388Z,21.31
2017-02-04T10:13:38.322Z,21.31
2017-02-04T10:14:38.259Z,21.31
2017-02-04T10:15:38.194Z,21.22
2017-02-04T10:16:38.132Z,21.31
2017-02-04T10:17:38.071Z,21.31
2017-02-04T10:18:38.004Z,21.31
2017-02-04T10:19:37.942Z,21.41
2017-02-04T10:20:37.880Z,21.31
2017-02-04T10:21:37.817Z,21.5
2017-02-04T10:22:37.758Z,21.41
2017-02-04T10:23:37.689Z,21.31
2017-02-04T10:24:37.625Z,21.5
2017-02-04T10:25:37.565Z,21.31
2017-02-04T10:26:37.506Z,21.31
2017-02-04T10:27:37.048Z,21.41
2017-02-04T10:28:37.379Z,21.31
2017-02-04T10:29:37.312Z,21.31
2017-02-04T10:30:37.250Z,21.31
2017-02-04T10:31:37.187Z,21.4
2017-02-04T10:32:37.124Z,21.5
2017-02-04T10:33:37.060Z,21.41
2017-02-04T10:34:37.006Z,21.41
2017-02-04T10:35:36.935Z,21.51
2017-02-04T10:36:36.871Z,21.5
2017-02-04T10:37:36.808Z,21.69
2017-02-04T10:38:36.741Z,21.8
2017-02-04T10:39:36.678Z,21.7
2017-02-04T10:40:36.617Z,21.51
2017-02-04T10:41:36.554Z,21.61
2017-02-04T10:42:36.491Z,21.41
2017-02-04T10:43:36.426Z,21.31
2017-02-04T10:44:36.362Z,21.61
2017-02-04T10:45:36.301Z,21.7
2017-02-04T10:46:36.238Z,21.61
2017-02-04T10:47:36.174Z,21.61
2017-02-04T10:48:36.112Z,21.61
2017-02-04T10:49:36.048Z,21.61
2017-02-04T10:50:35.985Z,21.41
2017-02-04T10:51:35.925Z,21.5
2017-02-04T10:52:35.858Z,21.41
2017-02-04T10:53:35.795Z,21.61
2017-02-04T10:54:35.731Z,21.22
2017-02-04T10:55:35.667Z,21.7
2017-02-04T10:56:35.602Z,21.51
2017-02-04T10:57:35.540Z,21.61
2017-02-04T10:58:35.482Z,21.8
2017-02-04T10:59:35.416Z,21.7
2017-02-04T11:00:35.351Z,21.7
2017-02-04T11:01:35.290Z,21.61
2017-02-04T11:02:35.225Z,21.69
2017-02-04T11:03:35.163Z,21.7
2017-02-04T11:04:35.099Z,21.61
2017-02-04T11:05:34.647Z,21.61
2017-02-04T11:06:35.003Z,21.7
2017-02-04T11:07:34.909Z,21.7
2017-02-04T11:08:34.848Z,21.61
2017-02-04T11:09:34.782Z,21.7
2017-02-04T11:10:34.330Z,21.61
2017-02-04T11:11:34.656Z,21.5
2017-02-04T11:12:34.595Z,21.59
2017-02-04T11:13:34.530Z,21.7
2017-02-04T11:14:34.467Z,21.59
2017-02-04T11:15:34.402Z,21.7
2017-02-04T11:16:34.342Z,21.59
2017-02-04T11:17:34.283Z,21.61
2017-02-04T11:18:34.212Z,21.59
2017-02-04T11:19:34.151Z,21.61
2017-02-04T11:20:34.085Z,21.61
2017-02-04T11:21:34.023Z,21.61
2017-02-04T11:22:33.959Z,21.7
2017-02-04T11:23:33.899Z,21.61
2017-02-04T11:24:33.836Z,21.7
2017-02-04T11:25:33.771Z,21.61
2017-02-04T11:26:33.707Z,21.61
2017-02-04T11:27:33.647Z,21.7
2017-02-04T11:28:33.579Z,21.79
2017-02-04T11:29:33.516Z,21.8
2017-02-04T11:30:33.456Z,21.8
2017-02-04T11:31:33.389Z,21.7
2017-02-04T11:32:32.938Z,21.7
2017-02-04T11:33:33.266Z,21.7
2017-02-04T11:34:33.202Z,21.7
2017-02-04T11:35:33.133Z,21.61
2017-02-04T11:36:33.074Z,21.61
2017-02-04T11:37:33.011Z,21.61
2017-02-04T11:38:32.949Z,21.8
2017-02-04T11:39:32.881Z,21.8
2017-02-04T11:40:32.823Z,21.8
2017-02-04T11:41:32.758Z,21.8
2017-02-04T11:42:32.699Z,21.79
2017-02-04T11:43:32.632Z,21.7
2017-02-04T11:44:32.568Z,21.8
2017-02-04T11:45:32.504Z,21.61
2017-02-04T11:46:32.446Z,21.7
2017-02-04T11:47:32.379Z,21.61
2017-02-04T11:48:32.317Z,21.61
2017-02-04T11:49:32.250Z,21.59
2017-02-04T11:50:32.186Z,21.61
2017-02-04T11:51:32.126Z,21.7
2017-02-04T11:52:32.062Z,21.69
2017-02-04T11:53:31.999Z,21.69
2017-02-04T11:54:31.935Z,21.61
2017-02-04T11:55:32.221Z,21.61
2017-02-04T11:56:31.807Z,21.61
2017-02-04T11:57:31.745Z,21.7
2017-02-04T11:58:31.681Z,21.61
2017-02-04T11:59:31.621Z,21.51
2017-02-04T12:00:31.554Z,21.59
2017-02-04T12:01:31.492Z,21.51
2017-02-04T12:02:31.430Z,21.89
2017-02-04T12:03:31.367Z,21.61
2017-02-04T12:04:31.304Z,21.41
2017-02-04T12:05:30.850Z,21.41
2017-02-04T12:06:31.180Z,21.89
2017-02-04T12:07:31.115Z,21.8
2017-02-04T12:08:31.051Z,21.99
2017-02-04T12:09:30.985Z,21.99
2017-02-04T12:10:30.929Z,21.7
2017-02-04T12:11:30.860Z,21.89
2017-02-04T12:12:30.796Z,21.99
2017-02-04T12:13:30.738Z,21.7
2017-02-04T12:14:30.671Z,21.8
2017-02-04T12:15:30.606Z,22.19
2017-02-04T12:16:30.546Z,21.41
2017-02-04T12:17:30.482Z,21.89
2017-02-04T12:18:30.418Z,22.19
2017-02-04T12:19:30.356Z,22.09
2017-02-04T12:20:30.289Z,22.08
2017-02-04T12:21:30.228Z,22.19
2017-02-04T12:22:30.165Z,21.99
2017-02-04T12:23:30.100Z,21.99
2017-02-04T12:24:30.043Z,22.09
2017-02-04T12:25:29.979Z,22.28
2017-02-04T12:26:29.917Z,22.28
2017-02-04T12:27:29.851Z,22.28
2017-02-04T12:28:29.786Z,22.28
2017-02-04T12:29:29.726Z,22.19
2017-02-04T12:30:29.665Z,22.28
2017-02-04T12:31:29.597Z,22.28
2017-02-04T12:32:29.534Z,22.09
2017-02-04T12:33:29.470Z,22.28
2017-02-04T12:34:29.407Z,22.19
2017-02-04T12:35:29.345Z,22.28
2017-02-04T12:36:29.281Z,22.19
2017-02-04T12:37:29.214Z,22.19
2017-02-04T12:38:29.154Z,22.19
2017-02-04T12:39:29.091Z,22.28
2017-02-04T12:40:29.034Z,22.47
2017-02-04T12:41:28.963Z,22.38
2017-02-04T12:42:28.901Z,22.47
2017-02-04T12:43:28.838Z,22.38
2017-02-04T12:44:28.775Z,22.38
2017-02-04T12:45:28.712Z,22.47
2017-02-04T12:46:28.647Z,22.38
2017-02-04T12:47:28.586Z,22.28
2017-02-04T12:48:28.525Z,22.38
2017-02-04T12:49:28.458Z,22.38
2017-02-04T12:50:28.394Z,22.67
2017-02-04T12:51:28.332Z,22.28
2017-02-04T12:52:28.267Z,22.38
2017-02-04T12:53:28.205Z,22.47
2017-02-04T12:54:28.143Z,22.28
2017-02-04T12:55:28.077Z,22.38
2017-02-04T12:56:28.016Z,22.46
2017-02-04T12:57:27.955Z,22.47